Fort George, Belize

11:58 PM CST on May 26, 2017 (GMT -0600)
Slaughter House Rd, Bze City | | Change Station

Elev 10 ft 17.49 °N, 88.19 °W | Updated 9 seconds ago

Mostly Cloudy
Mostly Cloudy
84.1 °F
Feels Like 93 °F
N
16.3
Wind Variable Wind from WNW
Gusts 19.0 mph

Today
High -- | Low -- °F
--% Chance of Precip.
Yesterday
High -- | Low -- °F
Precip. -- in
Pressure 29.96 in
Visibility 6.2 miles
Clouds Scattered Clouds 1700 ft
Heat Index 93 °F
Dew Point 76 °F
Humidity 78%
Rainfall 0.00 in
Snow Depth Not available.
5:17 AM 6:21 PM
Waxing Crescent, 3% visible
METAR MZBZ 270400Z 11005KT 9999 SCT017 28/26 A2996 Q1014 NOSIG
Pressure 29.96 in
Visibility 6.2 miles
Clouds Scattered Clouds 1700 ft
Heat Index 93 °F
Dew Point 76 °F
Humidity 78%
Rainfall 0.00 in
Snow Depth Not available.
5:17 AM 6:21 PM
Waxing Crescent, 3% visible
METAR MZBZ 270400Z 11005KT 9999 SCT017 28/26 A2996 Q1014 NOSIG

Get Severe Weather Alerts

Thanks for signing up!

Be on the lookout for a verification email in your inbox.

You'll start receiving the daily forecast at 6 AM.

×

10-Day Weather Forecast

No radar image for this location.
×

Almanac

Astronomy

May. 26, 2017 Rise Set
Actual Time
Civil Twilight
Nautical Twilight
Astronomical Twilight
Moon
Length of Visible Light
Length of Day
Tomorrow will be .
, % of the Moon is Illuminated

Today's Extremes

Country Highs Country Lows

Community

WunderPhotos

Category 6

Welcome to Category 6. This is the collective home for Weather Underground's featured writeups by Dr. Jeff Masters (right), Bob Henson (left), Chris Burt, and other regular contributors.

Nearby

Air Quality

  Air Quality AQ Index Pollutant
Not available.

Snow Depth

Station Depth Elevation

Earthquake Activity

City Distance Mag. Time & Date
Minimum magnitude displayed is 2.5.

Coastal Water Temperatures

Place Temperature

Stations

Nearby Weather Stations

Station Location Temp. Windchill Dew Point Humidity Wind Precip. Elev Updated Type